Time;durP1;ratioP1;P1;durP2;ratioP2;P2;SDS_P1;SDS_P2;PMS_P1;PMS_P2;Temp;Humidity;BMP_temperature;BMP_pressure;BME280_temperature;BME280_humidity;BME280_pressure;Samples;Min_cycle;Max_cycle;Signal;HPM_P1;HPM_P2
2021/11/18 00:00:35;;;;;;;9.32;3.35;;;20.60;45.90;;;;;;5011902;28;20046;-66
2021/11/18 00:03:02;;;;;;;7.70;2.60;;;20.60;46.00;;;;;;4997916;28;20038;-66
2021/11/18 00:05:29;;;;;;;9.15;3.17;;;20.60;45.90;;;;;;4998684;28;20045;-66
2021/11/18 00:07:55;;;;;;;8.30;3.38;;;20.60;45.90;;;;;;4996514;28;20618;-66
2021/11/18 00:10:34;;;;;;;8.00;3.13;;;20.60;45.90;;;;;;4999486;28;20058;-66
2021/11/18 00:13:01;;;;;;;10.05;3.13;;;20.60;46.00;;;;;;4996415;28;20034;-66
2021/11/18 00:15:28;;;;;;;9.35;3.42;;;20.60;45.90;;;;;;4998259;28;20046;-66
2021/11/18 00:18:00;;;;;;;7.70;2.97;;;20.50;45.70;;;;;;4995655;28;20101;-65
2021/11/18 00:21:00;;;;;;;8.55;3.47;;;20.50;45.80;;;;;;4995895;28;20116;-66
2021/11/18 00:23:29;;;;;;;8.68;3.17;;;20.60;45.90;;;;;;4996046;28;20038;-66
2021/11/18 00:25:55;;;;;;;8.82;2.90;;;20.50;45.80;;;;;;4996974;28;20738;-66
2021/11/18 00:28:21;;;;;;;8.80;2.85;;;20.60;45.80;;;;;;4997163;28;20041;-66
2021/11/18 00:30:47;;;;;;;9.18;3.30;;;20.60;45.90;;;;;;4995038;28;20568;-66
2021/11/18 00:33:13;;;;;;;7.25;2.72;;;20.50;45.80;;;;;;5012450;28;20087;-66
2021/11/18 00:35:40;;;;;;;7.15;2.80;;;20.60;46.50;;;;;;5011415;28;20052;-66
2021/11/18 00:38:06;;;;;;;8.90;2.88;;;20.60;45.80;;;;;;5011677;28;20103;-66
2021/11/18 00:40:36;;;;;;;9.55;2.92;;;20.60;45.80;;;;;;4998749;28;20045;-66
2021/11/18 00:43:05;;;;;;;7.63;3.13;;;20.50;45.60;;;;;;5012203;28;20459;-66
2021/11/18 00:45:32;;;;;;;7.25;2.83;;;20.60;45.80;;;;;;4997605;28;20042;-66
2021/11/18 00:48:00;;;;;;;8.57;3.20;;;20.60;45.70;;;;;;4997141;28;20578;-66
2021/11/18 00:50:38;;;;;;;7.28;2.85;;;20.60;45.80;;;;;;4996350;28;20068;-66
2021/11/18 00:53:04;;;;;;;10.25;3.00;;;20.60;45.80;;;;;;4997078;28;20046;-66
2021/11/18 00:55:31;;;;;;;8.32;2.95;;;20.60;45.70;;;;;;4999815;28;20084;-66
2021/11/18 00:58:00;;;;;;;7.90;2.85;;;20.60;45.70;;;;;;5011417;28;20053;-65
2021/11/18 01:00:31;;;;;;;8.73;2.85;;;20.60;45.70;;;;;;4996291;28;20034;-65
2021/11/18 01:02:58;;;;;;;7.43;3.03;;;20.60;45.70;;;;;;5004601;28;20046;-66
2021/11/18 01:05:35;;;;;;;9.77;3.22;;;20.60;45.70;;;;;;4997773;28;20049;-66
2021/11/18 01:08:02;;;;;;;8.05;3.00;;;20.60;45.70;;;;;;5012230;28;20047;-66
2021/11/18 01:10:32;;;;;;;8.40;3.08;;;20.60;45.70;;;;;;5010077;28;20041;-66
2021/11/18 01:13:00;;;;;;;6.45;2.50;;;20.60;45.70;;;;;;5011245;28;20054;-66
2021/11/18 01:15:29;;;;;;;7.97;2.85;;;20.60;45.70;;;;;;5010160;28;20042;-66
2021/11/18 01:17:55;;;;;;;8.20;2.75;;;20.60;45.70;;;;;;4998997;28;20042;-66
2021/11/18 01:20:26;;;;;;;6.95;2.70;;;20.60;45.70;;;;;;5011723;28;20404;-66
2021/11/18 01:22:58;;;;;;;9.10;3.08;;;20.60;45.70;;;;;;5010536;28;20184;-66
2021/11/18 01:25:27;;;;;;;7.80;2.83;;;20.60;45.70;;;;;;5010337;28;20088;-65
2021/11/18 01:27:54;;;;;;;7.63;2.75;;;20.50;45.50;;;;;;5012114;28;20691;-66
2021/11/18 01:30:27;;;;;;;8.32;2.78;;;20.60;45.60;;;;;;5008845;28;20049;-66
2021/11/18 01:32:55;;;;;;;7.80;2.80;;;20.60;45.70;;;;;;4997184;28;20166;-66
2021/11/18 01:35:33;;;;;;;8.60;3.05;;;20.60;45.70;;;;;;5007970;28;20043;-67
2021/11/18 01:37:59;;;;;;;7.40;2.40;;;20.60;45.70;;;;;;4994773;28;20038;-66
2021/11/18 01:40:30;;;;;;;7.75;2.88;;;20.60;45.70;;;;;;5009375;28;20038;-66
2021/11/18 01:43:03;;;;;;;7.30;2.60;;;20.50;45.50;;;;;;5009681;28;20050;-66
2021/11/18 01:45:32;;;;;;;6.15;2.50;;;20.50;45.40;;;;;;4997490;28;20415;-65
2021/11/18 01:47:58;;;;;;;7.70;2.60;;;20.50;45.40;;;;;;4996129;28;20034;-66
2021/11/18 01:50:27;;;;;;;6.70;2.58;;;20.50;45.40;;;;;;5011780;28;20034;-66
2021/11/18 01:52:57;;;;;;;9.02;2.78;;;20.50;46.10;;;;;;5009151;28;20140;-65
2021/11/18 01:55:26;;;;;;;8.15;2.72;;;20.50;45.50;;;;;;4997090;28;20682;-66
2021/11/18 01:57:52;;;;;;;7.05;2.70;;;20.50;45.50;;;;;;5009857;28;20105;-67
2021/11/18 02:00:53;;;;;;;7.80;2.80;;;20.50;45.50;;;;;;4966992;28;20118;-66
2021/11/18 02:03:22;;;;;;;8.70;3.00;;;20.50;45.50;;;;;;5009397;28;20038;-66
2021/11/18 02:06:14;;;;;;;7.63;2.67;;;20.50;45.50;;;;;;4993667;28;20046;-66
2021/11/18 02:08:40;;;;;;;8.52;3.05;;;20.50;45.50;;;;;;5008965;28;20046;-65
2021/11/18 02:11:27;;;;;;;7.95;2.75;;;20.50;45.50;;;;;;5000571;28;20058;-66
2021/11/18 02:13:55;;;;;;;8.40;2.70;;;20.50;45.50;;;;;;5010520;28;20062;-66
2021/11/18 02:16:23;;;;;;;8.52;2.70;;;20.50;45.50;;;;;;5010514;28;22851;-66
2021/11/18 02:18:49;;;;;;;9.32;2.83;;;20.50;45.40;;;;;;4997853;28;20049;-66
2021/11/18 02:21:16;;;;;;;6.32;2.42;;;20.50;45.40;;;;;;5009252;28;20077;-66
2021/11/18 02:23:51;;;;;;;8.38;2.78;;;20.50;45.40;;;;;;4995640;28;20125;-66
2021/11/18 02:26:20;;;;;;;7.47;2.67;;;20.50;45.40;;;;;;4991041;28;20034;-66
2021/11/18 02:28:48;;;;;;;6.50;2.45;;;20.50;45.40;;;;;;4993135;28;20045;-66
2021/11/18 02:31:22;;;;;;;9.38;3.08;;;20.60;45.50;;;;;;5008161;28;20122;-66
2021/11/18 02:33:48;;;;;;;7.45;2.75;;;20.60;45.50;;;;;;5008377;28;20093;-66
2021/11/18 02:36:17;;;;;;;6.50;2.80;;;20.60;45.50;;;;;;5007949;28;20523;-66
2021/11/18 02:38:43;;;;;;;8.43;2.80;;;20.60;45.50;;;;;;5009754;28;20034;-66
2021/11/18 02:41:16;;;;;;;7.30;2.55;;;20.60;45.40;;;;;;5001522;28;20166;-66
2021/11/18 02:43:43;;;;;;;7.38;2.78;;;20.60;45.40;;;;;;4993450;28;20065;-66
2021/11/18 02:46:09;;;;;;;7.43;2.90;;;20.60;45.40;;;;;;4997193;28;20133;-66
2021/11/18 02:48:37;;;;;;;7.32;2.53;;;20.60;45.40;;;;;;4998040;28;20141;-65
2021/11/18 02:51:05;;;;;;;8.88;3.15;;;20.60;45.40;;;;;;5008424;28;20042;-66
2021/11/18 02:53:32;;;;;;;7.47;2.45;;;20.60;45.40;;;;;;5007113;28;20053;-66
2021/11/18 02:55:59;;;;;;;8.13;2.60;;;20.60;45.40;;;;;;4995041;28;20050;-65
2021/11/18 02:58:26;;;;;;;6.55;2.63;;;20.50;45.20;;;;;;5009605;28;20041;-66
2021/11/18 03:01:08;;;;;;;8.35;2.53;;;20.60;45.40;;;;;;5000685;28;20046;-65
2021/11/18 03:03:35;;;;;;;7.65;2.85;;;20.60;45.40;;;;;;4994713;28;20050;-66
2021/11/18 03:06:01;;;;;;;7.65;2.83;;;20.60;45.30;;;;;;5010023;28;20042;-66
2021/11/18 03:08:28;;;;;;;8.23;2.95;;;20.60;45.40;;;;;;5009597;28;20128;-66
2021/11/18 03:10:57;;;;;;;8.20;2.97;;;20.60;45.40;;;;;;5009859;28;20042;-66
2021/11/18 03:13:24;;;;;;;8.00;2.83;;;20.60;45.40;;;;;;4994972;28;20492;-66
2021/11/18 03:15:51;;;;;;;8.05;2.88;;;20.60;45.40;;;;;;5009377;28;20081;-66
2021/11/18 03:18:17;;;;;;;8.05;2.58;;;20.60;45.40;;;;;;5009003;28;20152;-66
2021/11/18 03:20:46;;;;;;;6.50;2.33;;;20.60;45.40;;;;;;4991956;28;20623;-66
2021/11/18 03:23:12;;;;;;;7.70;3.17;;;20.60;45.30;;;;;;4994451;28;20026;-66
2021/11/18 03:25:39;;;;;;;6.75;2.58;;;20.60;45.30;;;;;;5008488;28;20045;-66
2021/11/18 03:28:16;;;;;;;6.88;2.70;;;20.50;45.20;;;;;;5009545;28;20052;-66
2021/11/18 03:30:44;;;;;;;8.68;3.00;;;20.60;45.40;;;;;;4993938;28;20042;-66
2021/11/18 03:33:18;;;;;;;7.72;2.33;;;20.60;45.40;;;;;;4994107;28;20058;-66
2021/11/18 03:35:44;;;;;;;9.52;2.60;;;20.60;45.30;;;;;;5002101;28;20536;-65
2021/11/18 03:38:11;;;;;;;6.57;3.03;;;20.60;45.40;;;;;;5001445;28;20038;-66
2021/11/18 03:40:37;;;;;;;8.43;3.17;;;20.50;45.00;;;;;;4993880;28;20045;-66
2021/11/18 03:43:09;;;;;;;8.48;3.10;;;20.50;45.00;;;;;;5008786;28;20044;-66
2021/11/18 03:45:37;;;;;;;7.25;2.78;;;20.50;45.00;;;;;;5010407;28;20113;-66
2021/11/18 03:48:04;;;;;;;9.68;3.10;;;20.50;44.90;;;;;;5009228;28;20092;-66
2021/11/18 03:50:35;;;;;;;8.18;3.13;;;20.50;44.90;;;;;;5009133;28;20126;-66
2021/11/18 03:53:01;;;;;;;9.32;3.10;;;20.50;44.90;;;;;;4993201;28;20510;-66
2021/11/18 03:55:27;;;;;;;10.93;2.88;;;20.50;44.80;;;;;;4996963;28;20415;-65
2021/11/18 03:57:54;;;;;;;8.68;2.95;;;20.40;44.60;;;;;;5010773;28;20041;-66
2021/11/18 04:00:27;;;;;;;9.13;2.70;;;20.40;44.60;;;;;;4992357;28;21096;-66
2021/11/18 04:02:55;;;;;;;7.78;2.90;;;20.50;44.80;;;;;;5009569;28;20073;-67
2021/11/18 04:05:29;;;;;;;9.05;2.95;;;20.40;44.60;;;;;;5010859;28;20046;-66
2021/11/18 04:07:55;;;;;;;6.80;2.60;;;20.40;44.60;;;;;;5002557;28;20041;-66
2021/11/18 04:10:25;;;;;;;8.75;3.05;;;20.40;44.60;;;;;;5012784;28;20115;-66
2021/11/18 04:12:52;;;;;;;10.82;3.00;;;20.40;44.60;;;;;;5012219;28;20042;-66
2021/11/18 04:15:20;;;;;;;9.15;2.85;;;20.40;44.60;;;;;;5012406;28;20077;-66
2021/11/18 04:17:49;;;;;;;8.25;2.85;;;20.40;44.60;;;;;;5014374;28;20038;-66
2021/11/18 04:20:16;;;;;;;7.20;3.28;;;20.40;44.60;;;;;;5011263;28;20079;-66
2021/11/18 04:22:45;;;;;;;7.75;2.90;;;20.40;44.60;;;;;;5011261;28;20042;-66
2021/11/18 04:25:15;;;;;;;7.60;2.70;;;20.40;44.50;;;;;;5011986;28;20042;-66
2021/11/18 04:27:42;;;;;;;8.73;3.10;;;20.50;44.70;;;;;;5012065;28;20038;-66
2021/11/18 04:30:11;;;;;;;11.35;3.17;;;20.40;44.50;;;;;;5011878;28;20137;-66
2021/11/18 04:32:40;;;;;;;7.20;2.60;;;20.50;44.60;;;;;;5011043;28;20136;-66
2021/11/18 04:35:07;;;;;;;8.73;2.90;;;20.50;44.60;;;;;;5011673;28;20037;-66
2021/11/18 04:37:34;;;;;;;7.15;2.50;;;20.40;44.40;;;;;;5011419;28;20554;-67
2021/11/18 04:40:00;;;;;;;7.15;2.78;;;20.50;44.60;;;;;;5003830;28;20038;-67
2021/11/18 04:42:26;;;;;;;7.65;2.70;;;20.50;44.90;;;;;;4997247;28;20044;-66
2021/11/18 04:45:15;;;;;;;8.32;2.95;;;20.40;44.40;;;;;;5000634;28;20500;-64
2021/11/18 04:47:41;;;;;;;9.50;2.90;;;20.50;44.60;;;;;;5011930;28;20038;-65
2021/11/18 04:50:09;;;;;;;11.93;2.95;;;20.40;44.40;;;;;;4998057;28;20765;-66
2021/11/18 04:52:35;;;;;;;9.90;2.95;;;20.50;44.40;;;;;;5011187;28;20046;-66
2021/11/18 04:55:05;;;;;;;8.50;2.72;;;20.50;44.60;;;;;;5010982;28;20049;-66
2021/11/18 04:57:30;;;;;;;7.47;2.80;;;20.50;45.20;;;;;;5011121;28;20034;-65
2021/11/18 04:59:57;;;;;;;8.75;2.63;;;20.50;44.60;;;;;;5011069;28;20131;-65
2021/11/18 05:02:25;;;;;;;8.93;3.13;;;20.50;44.60;;;;;;4997227;28;20049;-66
2021/11/18 05:04:52;;;;;;;7.35;2.58;;;20.50;44.60;;;;;;4995400;28;20037;-65
2021/11/18 05:07:20;;;;;;;8.60;2.90;;;20.50;44.60;;;;;;4995928;28;20045;-65
2021/11/18 05:09:47;;;;;;;12.23;3.20;;;20.50;44.60;;;;;;4999768;28;20049;-65
2021/11/18 05:12:13;;;;;;;9.68;2.88;;;20.50;44.60;;;;;;4995525;28;20042;-66
2021/11/18 05:14:39;;;;;;;9.73;3.00;;;20.50;44.60;;;;;;5010616;28;20062;-66
2021/11/18 05:17:05;;;;;;;10.27;3.40;;;20.50;44.50;;;;;;4994536;28;20072;-66
2021/11/18 05:19:32;;;;;;;14.18;3.00;;;20.50;44.50;;;;;;5009813;28;20062;-65
2021/11/18 05:21:58;;;;;;;11.57;3.08;;;20.40;44.50;;;;;;5001140;28;20499;-66
2021/11/18 05:24:24;;;;;;;12.88;3.08;;;20.50;44.60;;;;;;5010409;28;20036;-66
2021/11/18 05:26:53;;;;;;;12.35;2.97;;;20.40;44.40;;;;;;5012369;28;20157;-66
2021/11/18 05:29:19;;;;;;;8.65;2.88;;;20.40;44.40;;;;;;5009362;28;20121;-66
2021/11/18 05:31:44;;;;;;;9.05;2.90;;;20.50;44.50;;;;;;5009880;28;20045;-66
2021/11/18 05:34:40;;;;;;;10.55;3.33;;;20.40;44.40;;;;;;4983202;28;20129;-66
2021/11/18 05:37:08;;;;;;;9.38;3.00;;;20.40;44.30;;;;;;5011716;28;20034;-66
2021/11/18 05:39:36;;;;;;;10.43;3.47;;;20.40;44.20;;;;;;5007566;28;20510;-66
2021/11/18 05:42:03;;;;;;;11.07;3.38;;;20.40;44.20;;;;;;5010435;28;20045;-66
2021/11/18 05:44:29;;;;;;;9.93;3.13;;;20.40;44.20;;;;;;5009998;28;20065;-66
2021/11/18 05:46:55;;;;;;;11.73;3.20;;;20.40;44.20;;;;;;5011013;28;20046;-65
2021/11/18 05:49:21;;;;;;;14.90;4.07;;;20.50;44.90;;;;;;5003317;28;20088;-66
2021/11/18 05:51:48;;;;;;;28.92;7.00;;;20.50;45.00;;;;;;5012109;28;20038;-66
2021/11/18 05:54:17;;;;;;;37.58;6.78;;;20.60;46.00;;;;;;5010178;28;20038;-66
2021/11/18 05:56:44;;;;;;;30.52;6.35;;;20.60;46.60;;;;;;5011559;28;20038;-65
2021/11/18 05:59:12;;;;;;;36.10;6.65;;;20.70;46.90;;;;;;4996484;28;20046;-65
2021/11/18 06:01:39;;;;;;;34.03;7.25;;;20.70;47.50;;;;;;5007964;28;20048;-65
2021/11/18 06:04:06;;;;;;;34.65;7.60;;;20.70;48.20;;;;;;4995262;28;20042;-66
2021/11/18 06:06:52;;;;;;;34.70;7.80;;;20.80;48.40;;;;;;4996577;28;20062;-66
2021/11/18 06:09:19;;;;;;;28.13;6.90;;;20.80;48.50;;;;;;4997741;28;20065;-65
2021/11/18 06:11:45;;;;;;;25.55;6.30;;;20.80;48.90;;;;;;5009681;28;20521;-65
2021/11/18 06:14:17;;;;;;;22.95;5.78;;;20.80;48.70;;;;;;5002153;28;20431;-65
2021/11/18 06:16:44;;;;;;;22.45;5.72;;;20.80;47.90;;;;;;5010103;28;20460;-65
2021/11/18 06:19:10;;;;;;;26.58;5.32;;;20.80;47.60;;;;;;4996855;28;20034;-66
2021/11/18 06:21:40;;;;;;;16.15;4.50;;;20.90;47.70;;;;;;4992923;28;20451;-66
2021/11/18 06:24:06;;;;;;;22.60;5.32;;;20.90;47.50;;;;;;5009577;28;20037;-66
2021/11/18 06:26:37;;;;;;;18.05;4.30;;;20.90;47.20;;;;;;4995903;28;20065;-65
2021/11/18 06:29:04;;;;;;;24.48;4.60;;;20.90;47.00;;;;;;5008138;28;20037;-66
2021/11/18 06:31:30;;;;;;;20.83;4.80;;;20.90;46.80;;;;;;4998165;28;20095;-66
2021/11/18 06:33:57;;;;;;;20.15;5.05;;;20.90;46.60;;;;;;4997672;28;20050;-65
2021/11/18 06:36:23;;;;;;;15.50;4.15;;;20.90;46.60;;;;;;5010429;28;20054;-65
2021/11/18 06:38:51;;;;;;;16.75;4.40;;;20.90;46.30;;;;;;5007755;28;20085;-66
2021/11/18 06:41:20;;;;;;;13.48;4.53;;;21.00;46.30;;;;;;5008010;28;20069;-65
2021/11/18 06:43:46;;;;;;;17.50;4.50;;;21.00;46.20;;;;;;4995877;28;20422;-65
2021/11/18 06:46:15;;;;;;;15.00;4.28;;;21.00;46.00;;;;;;5008446;28;20122;-65
2021/11/18 06:48:41;;;;;;;16.85;4.20;;;21.00;45.80;;;;;;4993949;28;20070;-66
2021/11/18 06:51:20;;;;;;;15.98;4.13;;;21.00;46.20;;;;;;4998767;28;20132;-65
2021/11/18 06:53:47;;;;;;;14.60;4.32;;;21.00;46.30;;;;;;5008646;28;20042;-66
2021/11/18 06:56:19;;;;;;;16.98;4.05;;;20.90;46.00;;;;;;4992955;28;20038;-66
2021/11/18 06:58:44;;;;;;;15.18;4.18;;;20.90;45.90;;;;;;4995536;28;20038;-65
2021/11/18 07:01:10;;;;;;;16.42;4.15;;;21.00;46.10;;;;;;5002489;28;20048;-65
2021/11/18 07:03:39;;;;;;;11.70;3.75;;;21.00;46.10;;;;;;4996612;28;20043;-65
2021/11/18 07:06:15;;;;;;;12.70;3.58;;;20.90;45.80;;;;;;4996194;28;20053;-66
2021/11/18 07:08:43;;;;;;;13.20;3.67;;;21.00;46.00;;;;;;5008593;28;20177;-66
2021/11/18 07:11:10;;;;;;;18.92;6.07;;;20.90;45.70;;;;;;4991713;28;20038;-66
2021/11/18 07:13:37;;;;;;;24.88;4.93;;;21.00;45.40;;;;;;5007315;28;20117;-77
2021/11/18 07:16:08;;;;;;;24.77;5.38;;;21.10;46.50;;;;;;5011115;28;20042;-71
2021/11/18 07:18:34;;;;;;;25.10;4.60;;;21.20;47.10;;;;;;5012134;28;20030;-69
2021/11/18 07:21:00;;;;;;;22.52;4.72;;;21.40;48.80;;;;;;5012604;28;20064;-70
2021/11/18 07:23:29;;;;;;;14.60;4.40;;;21.50;48.00;;;;;;5010575;28;20519;-70
2021/11/18 07:25:58;;;;;;;14.00;4.13;;;21.60;48.20;;;;;;4996366;28;20046;-70
2021/11/18 07:28:27;;;;;;;31.25;5.38;;;21.70;48.40;;;;;;5007558;28;20509;-71
2021/11/18 07:30:55;;;;;;;13.68;4.45;;;21.80;47.20;;;;;;4998689;28;20062;-71
2021/11/18 07:33:23;;;;;;;13.90;4.30;;;21.90;47.70;;;;;;5009488;28;20867;-69
2021/11/18 07:35:54;;;;;;;11.43;4.05;;;22.10;47.90;;;;;;5008203;28;20127;-70
2021/11/18 07:38:26;;;;;;;15.15;4.05;;;22.20;47.60;;;;;;4995036;28;20097;-71
2021/11/18 07:40:53;;;;;;;12.43;3.67;;;22.30;47.20;;;;;;4996647;28;20045;-71
2021/11/18 07:43:27;;;;;;;12.15;3.90;;;22.40;47.10;;;;;;5012542;28;20776;-70
2021/11/18 07:45:59;;;;;;;11.68;3.88;;;22.50;47.00;;;;;;4998919;28;20042;-70
2021/11/18 07:48:26;;;;;;;11.07;3.90;;;22.60;46.80;;;;;;4998060;28;20149;-71
2021/11/18 07:50:54;;;;;;;10.15;3.63;;;22.60;46.60;;;;;;5014135;28;20141;-71
2021/11/18 07:53:22;;;;;;;14.38;3.92;;;22.70;46.40;;;;;;5012440;28;20046;-70
2021/11/18 07:55:48;;;;;;;15.38;3.80;;;22.70;46.10;;;;;;5012040;28;20061;-71
2021/11/18 07:58:15;;;;;;;13.40;3.92;;;22.80;46.30;;;;;;5010175;28;20033;-70
2021/11/18 08:00:47;;;;;;;10.27;3.60;;;22.80;46.40;;;;;;5014782;28;20041;-70
2021/11/18 08:03:22;;;;;;;10.10;3.70;;;22.90;46.00;;;;;;4996112;28;20042;-70
2021/11/18 08:06:11;;;;;;;12.43;3.80;;;22.90;45.90;;;;;;4991743;28;20091;-70
2021/11/18 08:08:48;;;;;;;9.73;3.63;;;23.00;45.90;;;;;;5004402;28;20042;-69
2021/11/18 08:11:31;;;;;;;10.88;3.70;;;23.00;45.70;;;;;;5013507;28;20038;-70
2021/11/18 08:13:58;;;;;;;9.50;3.55;;;23.10;45.90;;;;;;5013906;28;20046;-71
2021/11/18 08:16:25;;;;;;;12.20;3.90;;;23.10;45.60;;;;;;4998158;28;20478;-70
2021/11/18 08:18:56;;;;;;;10.82;3.80;;;23.10;45.60;;;;;;5012913;28;20034;-70
2021/11/18 08:21:23;;;;;;;11.38;3.60;;;23.20;46.10;;;;;;5012590;28;20038;-71
2021/11/18 08:23:51;;;;;;;10.38;3.58;;;23.20;45.50;;;;;;4996768;28;20533;-70
2021/11/18 08:26:21;;;;;;;11.60;3.53;;;23.30;45.70;;;;;;5003924;28;20042;-71
2021/11/18 08:28:48;;;;;;;11.07;3.35;;;23.30;45.70;;;;;;5012229;28;20064;-70
2021/11/18 08:31:16;;;;;;;9.77;3.25;;;23.30;45.60;;;;;;4998112;28;20030;-70
2021/11/18 08:34:03;;;;;;;10.00;3.75;;;23.30;45.40;;;;;;4997876;28;20041;-71
2021/11/18 08:36:28;;;;;;;13.15;3.92;;;23.30;44.70;;;;;;4997241;28;20081;-71
2021/11/18 08:38:57;;;;;;;9.95;3.88;;;23.30;44.90;;;;;;5010118;28;20473;-71
2021/11/18 08:41:23;;;;;;;8.80;3.20;;;23.30;44.90;;;;;;5013098;28;20042;-71
2021/11/18 08:43:53;;;;;;;12.57;3.38;;;23.40;45.00;;;;;;5010990;28;20614;-72
2021/11/18 08:46:21;;;;;;;11.55;4.00;;;23.40;45.10;;;;;;5003461;28;20066;-71
2021/11/18 08:48:47;;;;;;;12.70;3.67;;;23.40;44.90;;;;;;5010692;28;20050;-71
2021/11/18 08:51:16;;;;;;;8.27;3.42;;;23.40;45.00;;;;;;5008702;28;20034;-71
2021/11/18 08:53:44;;;;;;;9.88;3.50;;;23.40;45.00;;;;;;5010505;28;20065;-71
2021/11/18 08:56:09;;;;;;;12.00;3.75;;;23.50;44.90;;;;;;5012257;28;20038;-71
2021/11/18 08:58:40;;;;;;;10.30;3.75;;;23.50;44.90;;;;;;5011454;28;20092;-70
2021/11/18 09:01:20;;;;;;;8.98;3.70;;;23.60;45.00;;;;;;5012556;28;20030;-71
2021/11/18 09:03:46;;;;;;;10.50;3.58;;;23.60;44.80;;;;;;5012138;28;20040;-70
2021/11/18 09:06:17;;;;;;;9.57;3.63;;;23.60;44.80;;;;;;5004201;28;20511;-70
2021/11/18 09:08:48;;;;;;;9.10;3.28;;;23.60;44.80;;;;;;4995347;28;20145;-71
2021/11/18 09:11:15;;;;;;;12.63;3.95;;;23.60;44.70;;;;;;5003494;28;20511;-71
2021/11/18 09:13:50;;;;;;;11.00;3.95;;;23.70;44.80;;;;;;5009140;28;20144;-71
2021/11/18 09:16:18;;;;;;;20.48;3.97;;;23.70;44.90;;;;;;5009661;28;20038;-71
2021/11/18 09:18:57;;;;;;;8.30;3.25;;;23.70;44.60;;;;;;4997932;28;20523;-71
2021/11/18 09:21:26;;;;;;;8.15;3.20;;;23.80;44.70;;;;;;5011948;28;20034;-71
2021/11/18 09:24:00;;;;;;;10.60;3.42;;;23.70;44.80;;;;;;4997513;28;20038;-71
2021/11/18 09:26:28;;;;;;;11.25;3.65;;;23.80;44.70;;;;;;5009661;28;20037;-71
2021/11/18 09:28:55;;;;;;;9.82;3.40;;;23.80;44.70;;;;;;5002461;28;20078;-71
2021/11/18 09:31:34;;;;;;;9.45;3.45;;;23.80;44.70;;;;;;5009895;28;20110;-71
2021/11/18 09:34:01;;;;;;;10.60;3.55;;;23.80;44.60;;;;;;5011655;28;20076;-71
2021/11/18 09:36:29;;;;;;;18.88;4.03;;;23.80;44.60;;;;;;4996436;28;20054;-72
2021/11/18 09:38:59;;;;;;;11.32;3.53;;;23.80;45.00;;;;;;5010811;28;20130;-70
2021/11/18 09:41:28;;;;;;;13.05;4.28;;;23.80;44.70;;;;;;5011586;28;20430;-71
2021/11/18 09:44:17;;;;;;;9.93;3.70;;;23.80;44.70;;;;;;5009521;28;20044;-70
2021/11/18 09:47:13;;;;;;;9.65;3.65;;;23.80;44.60;;;;;;5010841;28;20062;-71
2021/11/18 09:49:51;;;;;;;9.93;3.33;;;23.80;44.70;;;;;;5003000;28;20046;-70
2021/11/18 09:52:40;;;;;;;9.90;3.10;;;23.80;44.80;;;;;;5009677;28;20039;-71
2021/11/18 09:55:30;;;;;;;10.82;3.67;;;23.80;44.80;;;;;;5009382;28;20041;-71
2021/11/18 09:58:16;;;;;;;12.60;3.20;;;23.80;44.70;;;;;;5010261;28;20042;-71
2021/11/18 10:00:48;;;;;;;11.10;3.72;;;23.80;44.70;;;;;;5002730;28;20045;-71
2021/11/18 10:03:38;;;;;;;8.60;3.40;;;23.80;44.70;;;;;;5010256;28;20516;-70
2021/11/18 10:06:27;;;;;;;11.60;4.15;;;23.80;44.60;;;;;;5011368;28;20117;-71
2021/11/18 10:09:02;;;;;;;10.50;3.22;;;23.80;44.60;;;;;;4996723;28;20049;-72
2021/11/18 10:12:39;;;;;;;10.45;3.78;;;23.80;45.00;;;;;;5009246;28;20030;-71
2021/11/18 10:15:10;;;;;;;9.25;3.20;;;23.80;45.20;;;;;;4886558;29;20047;-71
2021/11/18 10:17:41;;;;;;;13.68;3.47;;;23.80;44.80;;;;;;4942949;28;20133;-72
2021/11/18 10:20:38;;;;;;;9.38;3.95;;;23.80;44.70;;;;;;4982337;28;20117;-71
2021/11/18 10:23:15;;;;;;;11.40;3.78;;;23.80;44.70;;;;;;4996221;28;20042;-71
2021/11/18 10:25:48;;;;;;;9.43;3.70;;;23.90;44.90;;;;;;4992982;28;20255;-72
2021/11/18 10:28:20;;;;;;;9.38;3.63;;;23.90;44.80;;;;;;4995076;28;20042;-71
2021/11/18 10:30:49;;;;;;;13.10;3.55;;;23.90;44.70;;;;;;4994318;28;20173;-72
2021/11/18 10:33:18;;;;;;;8.95;3.15;;;23.90;44.80;;;;;;4994359;28;20037;-72
2021/11/18 10:36:13;;;;;;;11.27;4.15;;;23.90;44.60;;;;;;4994524;28;20088;-71
2021/11/18 10:38:49;;;;;;;10.13;3.25;;;23.90;44.60;;;;;;4994793;28;20837;-71
2021/11/18 10:41:15;;;;;;;11.18;3.80;;;23.90;44.70;;;;;;4995001;28;20073;-72
2021/11/18 10:43:41;;;;;;;8.07;3.15;;;24.00;44.70;;;;;;4997185;28;20073;-71
2021/11/18 10:46:07;;;;;;;9.23;3.30;;;24.00;44.70;;;;;;4996135;28;20406;-71
2021/11/18 10:48:37;;;;;;;12.68;3.97;;;24.00;44.60;;;;;;4995288;28;20050;-71
2021/11/18 10:51:26;;;;;;;9.38;3.38;;;24.00;44.70;;;;;;5010034;28;20038;-71
2021/11/18 10:54:03;;;;;;;10.73;3.83;;;24.00;44.60;;;;;;4995814;28;20042;-71
2021/11/18 10:56:43;;;;;;;9.27;3.45;;;24.00;44.50;;;;;;4993054;28;20543;-71
2021/11/18 10:59:16;;;;;;;12.60;4.00;;;24.00;44.60;;;;;;4993141;28;20121;-72
2021/11/18 11:01:46;;;;;;;14.70;3.63;;;24.00;44.60;;;;;;4994511;28;20504;-72
2021/11/18 11:04:38;;;;;;;12.70;3.10;;;24.00;44.60;;;;;;5007945;28;20038;-72
2021/11/18 11:07:05;;;;;;;11.25;3.90;;;24.00;44.70;;;;;;4994639;28;20475;-71
2021/11/18 11:09:35;;;;;;;10.57;3.28;;;24.00;44.70;;;;;;4994007;28;20033;-71
2021/11/18 11:12:02;;;;;;;10.70;3.83;;;24.00;44.60;;;;;;4996375;28;20038;-71
2021/11/18 11:15:02;;;;;;;9.27;3.35;;;24.00;44.50;;;;;;4994871;28;20042;-71
2021/11/18 11:17:54;;;;;;;10.00;3.47;;;24.10;44.50;;;;;;4997376;28;20559;-70
2021/11/18 11:20:44;;;;;;;9.35;3.38;;;24.10;44.40;;;;;;4998932;28;20441;-72
2021/11/18 11:23:12;;;;;;;8.85;3.15;;;24.10;44.40;;;;;;5014212;28;20091;-72
2021/11/18 11:26:00;;;;;;;8.75;2.90;;;24.10;44.30;;;;;;5001960;28;20046;-72
2021/11/18 11:28:48;;;;;;;7.68;2.95;;;24.00;46.20;;;;;;4997752;28;20046;-71
2021/11/18 11:31:40;;;;;;;7.88;2.75;;;23.90;46.50;;;;;;4999373;28;20129;-72
2021/11/18 11:34:24;;;;;;;9.40;2.92;;;23.80;46.70;;;;;;4997420;28;20133;-72
2021/11/18 11:36:57;;;;;;;7.50;2.80;;;23.70;46.70;;;;;;4998885;28;20496;-71
2021/11/18 11:39:55;;;;;;;7.75;2.47;;;23.60;47.10;;;;;;4996285;28;20050;-71
2021/11/18 11:42:40;;;;;;;9.32;2.47;;;23.50;47.00;;;;;;4998359;28;20515;-71
2021/11/18 11:45:33;;;;;;;14.40;3.10;;;23.40;47.00;;;;;;4999112;28;20041;-71
2021/11/18 11:48:14;;;;;;;9.05;2.92;;;23.30;46.70;;;;;;4998101;28;20084;-71
2021/11/18 11:50:52;;;;;;;8.30;2.80;;;23.30;47.20;;;;;;5013404;28;20046;-72
2021/11/18 11:53:18;;;;;;;10.85;2.83;;;23.20;47.20;;;;;;5012959;28;20039;-71
2021/11/18 11:56:06;;;;;;;7.80;2.45;;;23.20;47.20;;;;;;4996784;28;20077;-71
2021/11/18 11:58:49;;;;;;;7.78;3.00;;;23.10;47.20;;;;;;4996475;28;20128;-71
2021/11/18 12:01:18;;;;;;;8.30;2.60;;;23.00;47.00;;;;;;4999016;28;20041;-71
2021/11/18 12:03:55;;;;;;;6.45;2.30;;;23.00;47.10;;;;;;4996972;28;20406;-71
2021/11/18 12:06:21;;;;;;;7.50;2.83;;;23.00;47.20;;;;;;5004746;28;20518;-71
2021/11/18 12:08:58;;;;;;;6.07;2.40;;;23.00;47.30;;;;;;4997387;28;20066;-71
2021/11/18 12:11:57;;;;;;;8.90;2.20;;;23.00;47.50;;;;;;4997477;28;20432;-71
2021/11/18 12:14:37;;;;;;;8.32;2.78;;;22.90;47.40;;;;;;4994713;28;20042;-71
2021/11/18 12:17:42;;;;;;;9.15;3.00;;;22.90;47.40;;;;;;4998833;28;20049;-71
2021/11/18 12:20:13;;;;;;;9.27;2.70;;;22.90;47.70;;;;;;4959073;28;20053;-71
2021/11/18 12:22:38;;;;;;;9.25;2.70;;;22.90;47.60;;;;;;4998609;28;20054;-72
2021/11/18 12:25:14;;;;;;;6.72;2.17;;;22.80;47.70;;;;;;4997823;28;20049;-71
2021/11/18 12:27:55;;;;;;;6.95;2.45;;;22.80;47.50;;;;;;4996439;28;20042;-71
2021/11/18 12:30:51;;;;;;;8.05;2.33;;;22.80;47.50;;;;;;4996583;28;22124;-71
2021/11/18 12:33:17;;;;;;;6.95;2.35;;;22.80;47.50;;;;;;4995788;28;20081;-71
2021/11/18 12:35:48;;;;;;;14.10;3.40;;;22.70;47.20;;;;;;4998426;28;20054;-70
2021/11/18 12:38:37;;;;;;;11.93;2.95;;;22.60;46.40;;;;;;4998968;28;20054;-71
2021/11/18 12:41:28;;;;;;;16.90;2.95;;;22.60;47.40;;;;;;4994498;28;20735;-71
2021/11/18 12:44:18;;;;;;;14.80;3.10;;;22.60;46.10;;;;;;4998276;28;20042;-71
2021/11/18 12:47:12;;;;;;;11.68;3.40;;;22.70;46.40;;;;;;4997271;28;20041;-70
2021/11/18 12:49:37;;;;;;;9.88;3.00;;;22.80;46.10;;;;;;4998853;28;20069;-71
2021/11/18 12:52:18;;;;;;;8.60;3.05;;;22.90;46.20;;;;;;4996896;28;20065;-70
2021/11/18 12:55:04;;;;;;;11.02;3.05;;;23.00;46.80;;;;;;4998517;28;20069;-69
2021/11/18 12:57:53;;;;;;;12.68;3.15;;;23.10;46.10;;;;;;4997883;28;20042;-71
2021/11/18 13:00:37;;;;;;;8.98;2.92;;;23.20;46.10;;;;;;4996837;28;20510;-71
2021/11/18 13:03:05;;;;;;;9.23;2.90;;;23.30;45.90;;;;;;4997213;28;20034;-71
2021/11/18 13:05:31;;;;;;;9.77;2.75;;;23.30;45.90;;;;;;4996777;28;20520;-71
2021/11/18 13:08:07;;;;;;;8.70;2.83;;;23.40;45.80;;;;;;4996362;28;20038;-72